createdAt,value
2019-05-20T00:01:24.393Z,20.33
2019-05-20T00:04:50.018Z,21.60
2019-05-20T00:08:16.030Z,20.07
2019-05-20T00:11:41.631Z,21.23
2019-05-20T00:15:09.447Z,22.27
2019-05-20T00:18:35.061Z,21.40
2019-05-20T00:22:00.682Z,21.80
2019-05-20T00:25:27.260Z,23.20
2019-05-20T00:28:52.896Z,23.00
2019-05-20T00:32:18.567Z,22.60
2019-05-20T00:35:44.170Z,23.20
2019-05-20T00:39:17.431Z,23.10
2019-05-20T00:42:43.050Z,23.20
2019-05-20T00:46:08.694Z,24.47
2019-05-20T00:49:35.278Z,24.33
2019-05-20T00:53:02.567Z,24.47
2019-05-20T00:56:29.422Z,23.90
2019-05-20T00:59:55.029Z,24.13
2019-05-20T01:03:20.653Z,23.83
2019-05-20T01:06:46.404Z,24.10
2019-05-20T01:10:12.259Z,24.77
2019-05-20T01:13:37.879Z,24.87
2019-05-20T01:17:03.518Z,24.10
2019-05-20T01:20:29.185Z,23.80
2019-05-20T01:23:54.799Z,25.50
2019-05-20T01:27:20.412Z,24.17
2019-05-20T01:30:46.380Z,25.07
2019-05-20T01:34:11.991Z,25.70
2019-05-20T01:37:37.599Z,25.10
2019-05-20T01:41:04.568Z,24.83
2019-05-20T01:44:30.575Z,26.20
2019-05-20T01:47:56.193Z,26.97
2019-05-20T01:51:21.801Z,24.80
2019-05-20T01:54:47.468Z,24.37
2019-05-20T01:58:13.737Z,25.27
2019-05-20T02:01:40.772Z,25.77
2019-05-20T02:05:09.607Z,24.57
2019-05-20T02:08:35.792Z,24.33
2019-05-20T02:12:01.398Z,24.73
2019-05-20T02:15:40.791Z,24.70
2019-05-20T02:19:06.675Z,24.67
2019-05-20T02:22:32.286Z,24.10
2019-05-20T02:25:57.897Z,23.73
2019-05-20T02:29:23.813Z,24.27
2019-05-20T02:32:49.518Z,25.23
2019-05-20T02:36:16.582Z,26.27
2019-05-20T02:39:42.180Z,25.63
2019-05-20T02:43:07.958Z,25.17
2019-05-20T02:46:33.577Z,25.80
2019-05-20T02:50:00.098Z,25.10
2019-05-20T02:53:26.424Z,25.17
2019-05-20T02:56:52.432Z,26.60
2019-05-20T03:00:18.415Z,24.97
2019-05-20T03:03:44.025Z,25.17
2019-05-20T03:07:09.639Z,25.03
2019-05-20T03:10:35.243Z,26.43
2019-05-20T03:14:01.234Z,24.77
2019-05-20T03:17:26.854Z,25.00
2019-05-20T03:20:52.461Z,25.00
2019-05-20T03:24:18.597Z,25.27
2019-05-20T03:27:44.313Z,25.03
2019-05-20T03:31:10.655Z,25.50
2019-05-20T03:34:46.573Z,25.07
2019-05-20T03:38:03.593Z,24.60
2019-05-20T03:41:29.198Z,24.77
2019-05-20T03:44:55.218Z,23.73
2019-05-20T03:48:20.901Z,24.67
2019-05-20T03:51:46.514Z,25.43
2019-05-20T03:55:12.542Z,25.30
2019-05-20T03:58:38.239Z,24.47
2019-05-20T04:02:04.719Z,24.40
2019-05-20T04:05:30.415Z,24.30
2019-05-20T04:08:57.686Z,23.63
2019-05-20T04:12:23.309Z,25.27
2019-05-20T04:15:48.905Z,23.93
2019-05-20T04:19:14.577Z,23.80
2019-05-20T04:22:40.177Z,22.13
2019-05-20T04:26:05.805Z,22.60
2019-05-20T04:29:31.631Z,23.23
2019-05-20T04:32:57.386Z,22.30
2019-05-20T04:36:22.992Z,23.23
2019-05-20T04:39:48.882Z,23.13
2019-05-20T04:43:14.532Z,24.33
2019-05-20T04:46:40.530Z,23.77
2019-05-20T04:50:09.202Z,21.90
2019-05-20T04:53:35.777Z,22.00
2019-05-20T04:57:01.383Z,23.47
2019-05-20T05:00:50.820Z,22.10
2019-05-20T05:04:16.431Z,21.83
2019-05-20T05:07:42.071Z,22.57
2019-05-20T05:11:07.699Z,22.07
2019-05-20T05:14:33.834Z,21.93
2019-05-20T05:17:59.438Z,22.80
2019-05-20T05:21:25.156Z,23.73
2019-05-20T05:24:50.765Z,22.67
2019-05-20T05:28:17.888Z,21.43
2019-05-20T05:31:44.254Z,22.47
2019-05-20T05:35:11.624Z,22.50
2019-05-20T05:38:37.231Z,23.10
2019-05-20T05:42:02.882Z,23.87
2019-05-20T05:45:34.324Z,23.90
2019-05-20T05:49:00.563Z,23.37
2019-05-20T05:52:26.235Z,24.93
2019-05-20T05:55:51.893Z,24.57
2019-05-20T05:59:17.574Z,24.67
2019-05-20T06:02:43.727Z,24.93
2019-05-20T06:06:12.604Z,24.50
2019-05-20T06:09:36.690Z,25.30
2019-05-20T06:13:03.121Z,25.67
2019-05-20T06:16:36.519Z,25.70
2019-05-20T06:19:56.036Z,24.87
2019-05-20T06:23:21.740Z,24.97
2019-05-20T06:26:47.353Z,24.63
2019-05-20T06:30:14.695Z,24.70
2019-05-20T06:33:40.307Z,24.20
2019-05-20T06:37:23.006Z,22.80
2019-05-20T06:40:48.610Z,24.13
2019-05-20T06:44:14.450Z,24.50
2019-05-20T06:47:40.068Z,22.47
2019-05-20T06:51:06.748Z,23.93
2019-05-20T06:54:32.779Z,23.70
2019-05-20T06:57:58.409Z,21.73
2019-05-20T07:01:24.017Z,21.80
2019-05-20T07:04:50.841Z,21.33
2019-05-20T07:08:16.449Z,22.30
2019-05-20T07:11:51.903Z,21.03
2019-05-20T07:15:10.853Z,21.50
2019-05-20T07:18:37.053Z,18.93
2019-05-20T07:22:03.135Z,19.53
2019-05-20T07:25:28.846Z,20.27
2019-05-20T07:28:54.824Z,18.60
2019-05-20T07:32:21.342Z,19.43
2019-05-20T07:35:47.012Z,18.27
2019-05-20T07:39:12.717Z,18.77
2019-05-20T07:42:38.392Z,19.43
2019-05-20T07:46:05.324Z,16.87
2019-05-20T07:49:31.417Z,19.37
2019-05-20T07:53:00.416Z,17.20
2019-05-20T07:56:30.024Z,18.13
2019-05-20T07:59:56.853Z,17.30
2019-05-20T08:03:24.286Z,17.33
2019-05-20T08:06:50.778Z,16.33
2019-05-20T08:10:17.126Z,15.47
2019-05-20T08:13:43.687Z,17.17
2019-05-20T08:17:09.686Z,17.37
2019-05-20T08:20:35.540Z,16.57
2019-05-20T08:24:01.772Z,15.00
2019-05-20T08:27:27.938Z,15.17
2019-05-20T08:30:53.557Z,15.73
2019-05-20T08:34:19.149Z,14.40
2019-05-20T08:37:46.121Z,14.40
2019-05-20T08:41:12.386Z,14.03
2019-05-20T08:44:38.010Z,13.07
2019-05-20T08:48:03.603Z,12.87
2019-05-20T08:51:29.981Z,12.77
2019-05-20T08:54:55.585Z,13.30
2019-05-20T08:58:22.373Z,12.63
2019-05-20T09:01:49.571Z,12.60
2019-05-20T09:05:15.355Z,13.27
2019-05-20T09:08:41.875Z,12.47
2019-05-20T09:12:07.799Z,13.53
2019-05-20T09:15:33.417Z,12.43
2019-05-20T09:18:59.101Z,11.83
2019-05-20T09:22:24.696Z,11.13
2019-05-20T09:25:50.398Z,10.70
2019-05-20T09:29:16.079Z,11.10
2019-05-20T09:32:43.132Z,9.40
2019-05-20T09:36:09.093Z,9.23
2019-05-20T09:39:35.511Z,9.90
2019-05-20T09:43:01.679Z,10.70
2019-05-20T09:46:27.380Z,9.77
2019-05-20T09:49:52.985Z,9.67
2019-05-20T09:53:18.721Z,10.77
2019-05-20T09:56:44.321Z,11.97
2019-05-20T10:00:11.930Z,13.27
2019-05-20T10:03:37.947Z,11.37
2019-05-20T10:07:03.721Z,11.53
2019-05-20T10:10:29.748Z,10.20
2019-05-20T10:13:55.614Z,11.87
2019-05-20T10:17:21.229Z,10.65
2019-05-20T10:20:46.877Z,10.55
2019-05-20T10:24:12.478Z,10.68
2019-05-20T10:27:38.104Z,11.08
2019-05-20T10:31:03.709Z,10.75
2019-05-20T10:34:29.332Z,10.40
2019-05-20T10:37:54.959Z,10.95
2019-05-20T10:41:20.582Z,11.28
2019-05-20T10:44:46.228Z,11.60
2019-05-20T10:48:12.746Z,12.25
2019-05-20T10:51:38.345Z,11.73
2019-05-20T10:55:05.417Z,11.93
2019-05-20T10:58:31.187Z,11.30
2019-05-20T11:01:56.904Z,11.85
2019-05-20T11:05:23.596Z,11.40
2019-05-20T11:08:49.208Z,10.88
2019-05-20T11:12:14.819Z,11.15
2019-05-20T11:15:41.402Z,11.03
2019-05-20T11:19:07.013Z,11.33
2019-05-20T11:22:33.055Z,11.03
2019-05-20T11:25:58.704Z,10.93
2019-05-20T11:29:25.849Z,11.25
2019-05-20T11:32:51.978Z,11.00
2019-05-20T11:36:18.105Z,10.32
2019-05-20T11:39:44.093Z,10.50
2019-05-20T11:43:09.788Z,10.35
2019-05-20T11:46:35.693Z,10.20
2019-05-20T11:50:01.329Z,9.38
2019-05-20T11:53:27.640Z,8.60
2019-05-20T11:56:53.704Z,9.23
2019-05-20T12:00:20.415Z,9.23
2019-05-20T12:03:46.178Z,9.15
2019-05-20T12:07:11.743Z,8.60
2019-05-20T12:10:37.818Z,8.68
2019-05-20T12:14:05.370Z,8.53
2019-05-20T12:18:34.818Z,8.48
2019-05-20T12:22:00.477Z,9.00
2019-05-20T12:25:26.128Z,9.63
2019-05-20T12:28:51.730Z,9.75
2019-05-20T12:32:17.361Z,9.58
2019-05-20T12:35:42.983Z,9.83
2019-05-20T12:39:08.912Z,8.68
2019-05-20T12:42:34.496Z,9.60
2019-05-20T12:46:00.411Z,7.75
2019-05-20T12:49:26.239Z,8.03
2019-05-20T12:52:52.189Z,7.30
2019-05-20T12:56:19.699Z,8.18
2019-05-20T12:59:45.269Z,7.28
2019-05-20T13:03:10.962Z,7.45
2019-05-20T13:06:36.912Z,7.22
2019-05-20T13:10:03.461Z,7.00
2019-05-20T13:13:41.327Z,6.95
2019-05-20T13:17:06.928Z,7.15
2019-05-20T13:20:32.819Z,6.05
2019-05-20T13:23:58.442Z,7.12
2019-05-20T13:27:24.067Z,7.42
2019-05-20T13:30:50.282Z,7.97
2019-05-20T13:34:18.692Z,8.05
2019-05-20T13:37:45.331Z,7.53
2019-05-20T13:41:10.964Z,7.28
2019-05-20T13:44:37.377Z,7.60
2019-05-20T13:48:03.455Z,8.30
2019-05-20T13:51:29.209Z,8.68
2019-05-20T13:54:55.408Z,7.72
2019-05-20T13:58:25.045Z,8.65
2019-05-20T14:01:50.662Z,8.20
2019-05-20T14:05:16.789Z,8.23
2019-05-20T14:08:42.490Z,7.92
2019-05-20T14:12:08.092Z,8.28
2019-05-20T14:15:33.762Z,8.75
2019-05-20T14:18:59.357Z,7.75
2019-05-20T14:22:25.489Z,8.83
2019-05-20T14:25:51.105Z,9.03
2019-05-20T14:29:16.893Z,9.30
2019-05-20T14:32:42.492Z,9.05
2019-05-20T14:36:08.113Z,9.50
2019-05-20T14:39:33.714Z,9.58
2019-05-20T14:42:59.441Z,11.22
2019-05-20T14:46:25.125Z,10.43
2019-05-20T14:49:51.319Z,11.55
2019-05-20T14:53:16.940Z,13.00
2019-05-20T14:56:43.647Z,14.70
2019-05-20T15:00:10.563Z,15.78
2019-05-20T15:03:36.231Z,16.75
2019-05-20T15:07:01.807Z,16.85
2019-05-20T15:10:27.537Z,17.52
2019-05-20T15:13:53.170Z,17.92
2019-05-20T15:17:18.856Z,18.77
2019-05-20T15:20:44.614Z,19.85
2019-05-20T15:24:12.259Z,18.65
2019-05-20T15:27:39.262Z,17.75
2019-05-20T15:31:04.969Z,15.98
2019-05-20T15:34:30.627Z,14.93
2019-05-20T15:37:56.254Z,15.40
2019-05-20T15:41:21.929Z,14.83
2019-05-20T15:44:47.562Z,14.83
2019-05-20T15:48:13.166Z,14.87
2019-05-20T15:51:38.772Z,15.43
2019-05-20T15:55:06.476Z,15.20
2019-05-20T15:58:32.615Z,15.33
2019-05-20T16:01:58.203Z,14.73
2019-05-20T16:05:24.156Z,14.53
2019-05-20T16:08:49.748Z,15.28
2019-05-20T16:12:15.377Z,17.60
2019-05-20T16:15:43.945Z,16.40
2019-05-20T16:19:09.595Z,16.52
2019-05-20T16:22:35.254Z,16.82
2019-05-20T16:26:00.910Z,16.45
2019-05-20T16:29:26.573Z,18.10
2019-05-20T16:32:52.274Z,18.77
2019-05-20T16:36:17.866Z,16.90
2019-05-20T16:39:43.496Z,17.57
2019-05-20T16:43:09.484Z,17.97
2019-05-20T16:46:35.996Z,17.30
2019-05-20T16:50:01.589Z,18.10
2019-05-20T16:53:27.488Z,18.33
2019-05-20T16:56:53.254Z,17.87
2019-05-20T17:00:31.337Z,18.47
2019-05-20T17:03:50.335Z,18.00
2019-05-20T17:07:16.635Z,16.97
2019-05-20T17:10:42.231Z,17.07
2019-05-20T17:14:10.535Z,17.20
2019-05-20T17:17:35.170Z,17.67
2019-05-20T17:21:01.571Z,18.33
2019-05-20T17:24:27.243Z,17.53
2019-05-20T17:27:52.858Z,17.57
2019-05-20T17:31:19.455Z,18.47
2019-05-20T17:34:45.077Z,16.77
2019-05-20T17:38:13.808Z,17.73
2019-05-20T17:41:40.103Z,16.83
2019-05-20T17:45:09.212Z,16.83
2019-05-20T17:48:35.243Z,15.07
2019-05-20T17:52:01.279Z,15.10
2019-05-20T17:55:27.161Z,14.07
2019-05-20T17:58:53.816Z,15.70
2019-05-20T18:02:19.535Z,14.80
2019-05-20T18:05:46.670Z,15.60
2019-05-20T18:09:13.553Z,14.13
2019-05-20T18:12:39.223Z,15.83
2019-05-20T18:16:05.109Z,15.17
2019-05-20T18:19:30.907Z,16.67
2019-05-20T18:22:56.504Z,16.77
2019-05-20T18:26:22.345Z,17.30
2019-05-20T18:29:48.940Z,16.90
2019-05-20T18:33:14.930Z,17.93
2019-05-20T18:36:41.383Z,16.47
2019-05-20T18:40:14.111Z,16.70
2019-05-20T18:43:36.496Z,17.30
2019-05-20T18:47:02.775Z,16.67
2019-05-20T18:50:28.565Z,15.73
2019-05-20T18:53:54.234Z,15.93
2019-05-20T18:57:20.452Z,15.57
2019-05-20T19:00:46.325Z,15.87
2019-05-20T19:04:12.418Z,14.60
2019-05-20T19:07:38.282Z,15.90
2019-05-20T19:11:04.063Z,15.77
2019-05-20T19:14:29.789Z,14.17
2019-05-20T19:17:55.732Z,13.60
2019-05-20T19:21:21.335Z,14.03
2019-05-20T19:24:46.992Z,15.37
2019-05-20T19:28:13.573Z,14.73
2019-05-20T19:31:39.208Z,14.73
2019-05-20T19:35:07.993Z,15.07
2019-05-20T19:38:35.151Z,16.37
2019-05-20T19:42:00.822Z,15.20
2019-05-20T19:45:26.505Z,16.40
2019-05-20T19:48:52.190Z,15.73
2019-05-20T19:52:17.833Z,15.13
2019-05-20T19:55:43.490Z,16.83
2019-05-20T19:59:09.185Z,16.00
2019-05-20T20:02:34.861Z,15.47
2019-05-20T20:06:00.532Z,16.80
2019-05-20T20:09:26.210Z,15.93
2019-05-20T20:12:51.895Z,16.33
2019-05-20T20:16:18.332Z,16.23
2019-05-20T20:19:44.098Z,16.03
2019-05-20T20:23:09.946Z,15.77
2019-05-20T20:26:35.538Z,15.40
2019-05-20T20:30:01.300Z,16.17
2019-05-20T20:33:28.888Z,14.90
2019-05-20T20:36:54.615Z,14.83
2019-05-20T20:40:20.435Z,14.63
2019-05-20T20:43:46.081Z,14.23
2019-05-20T20:47:11.755Z,13.80
2019-05-20T20:50:37.390Z,15.23
2019-05-20T20:54:03.227Z,15.70
2019-05-20T20:57:29.190Z,15.13
2019-05-20T21:00:54.822Z,14.87
2019-05-20T21:04:20.516Z,15.97
2019-05-20T21:07:46.174Z,16.83
2019-05-20T21:11:11.849Z,19.93
2019-05-20T21:14:37.582Z,19.90
2019-05-20T21:18:03.456Z,21.07
2019-05-20T21:21:30.261Z,20.83
2019-05-20T21:24:55.895Z,21.80
2019-05-20T21:28:22.048Z,22.27
2019-05-20T21:31:47.705Z,22.57
2019-05-20T21:35:13.552Z,21.37
2019-05-20T21:38:39.164Z,21.87
2019-05-20T21:42:04.848Z,22.77
2019-05-20T21:45:30.532Z,21.37
2019-05-20T21:48:56.153Z,21.67
2019-05-20T21:52:21.746Z,23.37
2019-05-20T21:55:47.354Z,22.07
2019-05-20T21:59:12.960Z,20.23
2019-05-20T22:02:38.565Z,20.47
2019-05-20T22:06:04.429Z,21.50
2019-05-20T22:09:30.128Z,22.77
2019-05-20T22:12:55.736Z,22.83
2019-05-20T22:16:21.348Z,22.03
2019-05-20T22:19:46.949Z,21.80
2019-05-20T22:23:15.048Z,19.53
2019-05-20T22:26:41.766Z,19.80
2019-05-20T22:30:09.501Z,19.67
2019-05-20T22:33:41.459Z,18.53
2019-05-20T22:37:02.672Z,17.60
2019-05-20T22:40:28.290Z,16.60
2019-05-20T22:43:53.911Z,16.67
2019-05-20T22:47:19.511Z,14.73
2019-05-20T22:50:48.534Z,13.60
2019-05-20T22:54:12.472Z,12.47
2019-05-20T22:57:38.093Z,12.83
2019-05-20T23:01:03.861Z,12.33
2019-05-20T23:04:29.475Z,12.03
2019-05-20T23:07:55.071Z,10.50
2019-05-20T23:11:20.681Z,9.77
2019-05-20T23:14:46.277Z,8.73
2019-05-20T23:18:11.877Z,8.93
2019-05-20T23:21:37.492Z,8.07
2019-05-20T23:25:03.111Z,8.50
2019-05-20T23:28:28.696Z,7.80
2019-05-20T23:31:54.318Z,8.47
2019-05-20T23:35:19.915Z,7.80
2019-05-20T23:38:45.858Z,8.73
2019-05-20T23:42:11.704Z,7.80
2019-05-20T23:45:37.304Z,8.20
2019-05-20T23:49:02.903Z,7.77
2019-05-20T23:52:28.626Z,8.80
2019-05-20T23:55:54.305Z,7.97
2019-05-20T23:59:19.930Z,7.70
